sensor_id;sensor_type;location;lat;lon;timestamp;P1;durP1;ratioP1;P2;durP2;ratioP2
6207;SDS011;3137;51.550;7.060;2023-11-21T00:00:46;21.30;;;12.93;;
6207;SDS011;3137;51.550;7.060;2023-11-21T00:03:13;23.50;;;13.30;;
6207;SDS011;3137;51.550;7.060;2023-11-21T00:05:41;22.90;;;13.17;;
6207;SDS011;3137;51.550;7.060;2023-11-21T00:08:08;17.73;;;12.77;;
6207;SDS011;3137;51.550;7.060;2023-11-21T00:10:34;19.97;;;12.43;;
6207;SDS011;3137;51.550;7.060;2023-11-21T00:13:01;18.87;;;11.77;;
6207;SDS011;3137;51.550;7.060;2023-11-21T00:15:28;21.47;;;13.80;;
6207;SDS011;3137;51.550;7.060;2023-11-21T00:17:55;25.57;;;13.97;;
6207;SDS011;3137;51.550;7.060;2023-11-21T00:20:22;24.97;;;13.63;;
6207;SDS011;3137;51.550;7.060;2023-11-21T00:22:48;23.80;;;14.43;;
6207;SDS011;3137;51.550;7.060;2023-11-21T00:25:14;23.93;;;14.43;;
6207;SDS011;3137;51.550;7.060;2023-11-21T00:27:43;25.53;;;13.83;;
6207;SDS011;3137;51.550;7.060;2023-11-21T00:30:10;22.97;;;14.70;;
6207;SDS011;3137;51.550;7.060;2023-11-21T00:32:37;22.00;;;14.13;;
6207;SDS011;3137;51.550;7.060;2023-11-21T00:35:04;16.43;;;12.70;;
6207;SDS011;3137;51.550;7.060;2023-11-21T00:37:32;25.23;;;14.77;;
6207;SDS011;3137;51.550;7.060;2023-11-21T00:39:58;25.77;;;15.73;;
6207;SDS011;3137;51.550;7.060;2023-11-21T00:42:25;22.43;;;14.47;;
6207;SDS011;3137;51.550;7.060;2023-11-21T00:44:51;24.60;;;15.07;;
6207;SDS011;3137;51.550;7.060;2023-11-21T00:47:18;23.13;;;13.70;;
6207;SDS011;3137;51.550;7.060;2023-11-21T00:49:44;18.00;;;13.17;;
6207;SDS011;3137;51.550;7.060;2023-11-21T00:52:11;18.87;;;14.57;;
6207;SDS011;3137;51.550;7.060;2023-11-21T00:54:37;31.20;;;14.37;;
6207;SDS011;3137;51.550;7.060;2023-11-21T00:57:04;13.67;;;12.17;;
6207;SDS011;3137;51.550;7.060;2023-11-21T00:59:30;24.27;;;14.50;;
6207;SDS011;3137;51.550;7.060;2023-11-21T01:01:57;23.03;;;13.33;;
6207;SDS011;3137;51.550;7.060;2023-11-21T01:04:26;20.53;;;12.77;;
6207;SDS011;3137;51.550;7.060;2023-11-21T01:06:53;27.23;;;13.37;;
6207;SDS011;3137;51.550;7.060;2023-11-21T01:09:20;20.03;;;12.47;;
6207;SDS011;3137;51.550;7.060;2023-11-21T01:11:46;22.97;;;12.90;;
6207;SDS011;3137;51.550;7.060;2023-11-21T01:14:13;15.57;;;11.43;;
6207;SDS011;3137;51.550;7.060;2023-11-21T01:16:39;22.63;;;14.23;;
6207;SDS011;3137;51.550;7.060;2023-11-21T01:19:06;20.97;;;13.23;;
6207;SDS011;3137;51.550;7.060;2023-11-21T01:21:33;13.37;;;11.97;;
6207;SDS011;3137;51.550;7.060;2023-11-21T01:24:00;22.37;;;12.30;;
6207;SDS011;3137;51.550;7.060;2023-11-21T01:26:26;13.80;;;10.53;;
6207;SDS011;3137;51.550;7.060;2023-11-21T01:28:53;19.90;;;12.80;;
6207;SDS011;3137;51.550;7.060;2023-11-21T01:31:19;16.17;;;12.43;;
6207;SDS011;3137;51.550;7.060;2023-11-21T01:33:47;16.10;;;11.57;;
6207;SDS011;3137;51.550;7.060;2023-11-21T01:36:13;16.90;;;11.10;;
6207;SDS011;3137;51.550;7.060;2023-11-21T01:38:40;11.70;;;10.47;;
6207;SDS011;3137;51.550;7.060;2023-11-21T01:41:06;13.50;;;10.73;;
6207;SDS011;3137;51.550;7.060;2023-11-21T01:43:33;23.83;;;13.30;;
6207;SDS011;3137;51.550;7.060;2023-11-21T01:46:00;18.47;;;12.33;;
6207;SDS011;3137;51.550;7.060;2023-11-21T01:48:27;18.77;;;10.80;;
6207;SDS011;3137;51.550;7.060;2023-11-21T01:50:54;15.37;;;11.33;;
6207;SDS011;3137;51.550;7.060;2023-11-21T01:53:20;21.10;;;13.90;;
6207;SDS011;3137;51.550;7.060;2023-11-21T01:55:48;18.80;;;13.67;;
6207;SDS011;3137;51.550;7.060;2023-11-21T01:58:15;21.90;;;13.10;;
6207;SDS011;3137;51.550;7.060;2023-11-21T02:00:42;24.30;;;14.47;;
6207;SDS011;3137;51.550;7.060;2023-11-21T02:03:09;16.77;;;12.37;;
6207;SDS011;3137;51.550;7.060;2023-11-21T02:05:36;18.27;;;14.23;;
6207;SDS011;3137;51.550;7.060;2023-11-21T02:08:03;20.03;;;13.20;;
6207;SDS011;3137;51.550;7.060;2023-11-21T02:10:30;16.80;;;12.33;;
6207;SDS011;3137;51.550;7.060;2023-11-21T02:12:57;21.00;;;14.13;;
6207;SDS011;3137;51.550;7.060;2023-11-21T02:15:25;23.23;;;12.40;;
6207;SDS011;3137;51.550;7.060;2023-11-21T02:17:55;17.67;;;13.77;;
6207;SDS011;3137;51.550;7.060;2023-11-21T02:20:22;15.83;;;11.93;;
6207;SDS011;3137;51.550;7.060;2023-11-21T02:22:54;21.67;;;13.30;;
6207;SDS011;3137;51.550;7.060;2023-11-21T02:25:26;17.13;;;11.77;;
6207;SDS011;3137;51.550;7.060;2023-11-21T02:27:54;16.60;;;12.33;;
6207;SDS011;3137;51.550;7.060;2023-11-21T02:30:22;24.63;;;13.73;;
6207;SDS011;3137;51.550;7.060;2023-11-21T02:32:48;21.50;;;12.90;;
6207;SDS011;3137;51.550;7.060;2023-11-21T02:35:15;19.47;;;13.70;;
6207;SDS011;3137;51.550;7.060;2023-11-21T02:37:42;21.17;;;13.10;;
6207;SDS011;3137;51.550;7.060;2023-11-21T02:40:09;15.53;;;11.50;;
6207;SDS011;3137;51.550;7.060;2023-11-21T02:42:39;12.67;;;11.37;;
6207;SDS011;3137;51.550;7.060;2023-11-21T02:45:07;27.20;;;13.23;;
6207;SDS011;3137;51.550;7.060;2023-11-21T02:47:34;18.73;;;12.10;;
6207;SDS011;3137;51.550;7.060;2023-11-21T02:50:01;24.80;;;14.93;;
6207;SDS011;3137;51.550;7.060;2023-11-21T02:52:27;17.30;;;11.70;;
6207;SDS011;3137;51.550;7.060;2023-11-21T02:54:53;25.43;;;13.93;;
6207;SDS011;3137;51.550;7.060;2023-11-21T02:57:20;27.20;;;14.87;;
6207;SDS011;3137;51.550;7.060;2023-11-21T02:59:46;22.87;;;14.37;;
6207;SDS011;3137;51.550;7.060;2023-11-21T03:02:13;35.43;;;14.57;;
6207;SDS011;3137;51.550;7.060;2023-11-21T03:04:39;20.83;;;14.03;;
6207;SDS011;3137;51.550;7.060;2023-11-21T03:07:06;21.50;;;14.40;;
6207;SDS011;3137;51.550;7.060;2023-11-21T03:09:32;27.60;;;15.13;;
6207;SDS011;3137;51.550;7.060;2023-11-21T03:11:58;26.40;;;15.80;;
6207;SDS011;3137;51.550;7.060;2023-11-21T03:14:25;19.23;;;12.10;;
6207;SDS011;3137;51.550;7.060;2023-11-21T03:16:52;18.53;;;13.67;;
6207;SDS011;3137;51.550;7.060;2023-11-21T03:19:19;16.60;;;12.50;;
6207;SDS011;3137;51.550;7.060;2023-11-21T03:21:46;24.73;;;13.33;;
6207;SDS011;3137;51.550;7.060;2023-11-21T03:24:13;22.23;;;13.47;;
6207;SDS011;3137;51.550;7.060;2023-11-21T03:26:39;22.33;;;15.20;;
6207;SDS011;3137;51.550;7.060;2023-11-21T03:29:06;19.73;;;13.63;;
6207;SDS011;3137;51.550;7.060;2023-11-21T03:31:32;18.30;;;12.70;;
6207;SDS011;3137;51.550;7.060;2023-11-21T03:33:59;19.40;;;14.77;;
6207;SDS011;3137;51.550;7.060;2023-11-21T03:36:26;20.73;;;15.03;;
6207;SDS011;3137;51.550;7.060;2023-11-21T03:38:52;27.03;;;14.33;;
6207;SDS011;3137;51.550;7.060;2023-11-21T03:41:18;25.03;;;15.27;;
6207;SDS011;3137;51.550;7.060;2023-11-21T03:43:45;26.63;;;15.90;;
6207;SDS011;3137;51.550;7.060;2023-11-21T03:46:13;24.80;;;16.03;;
6207;SDS011;3137;51.550;7.060;2023-11-21T03:48:39;16.13;;;12.77;;
6207;SDS011;3137;51.550;7.060;2023-11-21T03:51:06;20.27;;;13.77;;
6207;SDS011;3137;51.550;7.060;2023-11-21T03:53:33;17.40;;;13.37;;
6207;SDS011;3137;51.550;7.060;2023-11-21T03:56:02;17.27;;;13.60;;
6207;SDS011;3137;51.550;7.060;2023-11-21T03:58:29;15.63;;;13.07;;
6207;SDS011;3137;51.550;7.060;2023-11-21T04:00:56;16.40;;;13.63;;
6207;SDS011;3137;51.550;7.060;2023-11-21T04:03:22;16.97;;;13.33;;
6207;SDS011;3137;51.550;7.060;2023-11-21T04:05:49;21.27;;;14.60;;
6207;SDS011;3137;51.550;7.060;2023-11-21T04:08:15;17.23;;;13.17;;
6207;SDS011;3137;51.550;7.060;2023-11-21T04:10:42;22.17;;;14.17;;
6207;SDS011;3137;51.550;7.060;2023-11-21T04:13:08;23.57;;;15.03;;
6207;SDS011;3137;51.550;7.060;2023-11-21T04:15:35;29.83;;;15.30;;
6207;SDS011;3137;51.550;7.060;2023-11-21T04:18:01;23.73;;;15.87;;
6207;SDS011;3137;51.550;7.060;2023-11-21T04:20:28;20.73;;;13.63;;
6207;SDS011;3137;51.550;7.060;2023-11-21T04:22:54;25.27;;;15.73;;
6207;SDS011;3137;51.550;7.060;2023-11-21T04:25:21;22.40;;;15.10;;
6207;SDS011;3137;51.550;7.060;2023-11-21T04:27:49;23.37;;;15.27;;
6207;SDS011;3137;51.550;7.060;2023-11-21T04:30:15;22.00;;;14.40;;
6207;SDS011;3137;51.550;7.060;2023-11-21T04:32:42;20.73;;;13.80;;
6207;SDS011;3137;51.550;7.060;2023-11-21T04:35:08;13.77;;;11.90;;
6207;SDS011;3137;51.550;7.060;2023-11-21T04:37:35;20.17;;;13.07;;
6207;SDS011;3137;51.550;7.060;2023-11-21T04:40:02;15.50;;;12.77;;
6207;SDS011;3137;51.550;7.060;2023-11-21T04:42:33;24.63;;;14.37;;
6207;SDS011;3137;51.550;7.060;2023-11-21T04:45:01;22.30;;;13.97;;
6207;SDS011;3137;51.550;7.060;2023-11-21T04:47:27;21.07;;;14.37;;
6207;SDS011;3137;51.550;7.060;2023-11-21T04:49:55;17.63;;;13.10;;
6207;SDS011;3137;51.550;7.060;2023-11-21T04:52:21;28.07;;;14.67;;
6207;SDS011;3137;51.550;7.060;2023-11-21T04:54:48;16.83;;;13.63;;
6207;SDS011;3137;51.550;7.060;2023-11-21T04:57:14;17.77;;;12.97;;
6207;SDS011;3137;51.550;7.060;2023-11-21T04:59:41;12.20;;;10.80;;
6207;SDS011;3137;51.550;7.060;2023-11-21T05:02:07;15.00;;;11.97;;
6207;SDS011;3137;51.550;7.060;2023-11-21T05:04:42;25.53;;;14.20;;
6207;SDS011;3137;51.550;7.060;2023-11-21T05:07:09;51.83;;;28.80;;
6207;SDS011;3137;51.550;7.060;2023-11-21T05:09:35;38.80;;;23.97;;
6207;SDS011;3137;51.550;7.060;2023-11-21T05:12:03;37.93;;;23.73;;
6207;SDS011;3137;51.550;7.060;2023-11-21T05:14:29;33.33;;;17.67;;
6207;SDS011;3137;51.550;7.060;2023-11-21T05:16:56;34.33;;;19.83;;
6207;SDS011;3137;51.550;7.060;2023-11-21T05:19:23;34.17;;;18.20;;
6207;SDS011;3137;51.550;7.060;2023-11-21T05:21:49;23.67;;;16.83;;
6207;SDS011;3137;51.550;7.060;2023-11-21T05:24:16;22.93;;;15.97;;
6207;SDS011;3137;51.550;7.060;2023-11-21T05:26:43;29.83;;;18.27;;
6207;SDS011;3137;51.550;7.060;2023-11-21T05:29:09;24.73;;;15.83;;
6207;SDS011;3137;51.550;7.060;2023-11-21T05:31:36;30.83;;;15.57;;
6207;SDS011;3137;51.550;7.060;2023-11-21T05:34:04;19.40;;;13.70;;
6207;SDS011;3137;51.550;7.060;2023-11-21T05:36:31;20.43;;;13.17;;
6207;SDS011;3137;51.550;7.060;2023-11-21T05:38:57;20.93;;;12.53;;
6207;SDS011;3137;51.550;7.060;2023-11-21T05:41:24;30.60;;;14.30;;
6207;SDS011;3137;51.550;7.060;2023-11-21T05:43:51;19.70;;;12.37;;
6207;SDS011;3137;51.550;7.060;2023-11-21T05:46:20;22.23;;;13.57;;
6207;SDS011;3137;51.550;7.060;2023-11-21T05:48:46;20.90;;;12.47;;
6207;SDS011;3137;51.550;7.060;2023-11-21T05:51:13;17.00;;;12.67;;
6207;SDS011;3137;51.550;7.060;2023-11-21T05:53:40;26.33;;;16.07;;
6207;SDS011;3137;51.550;7.060;2023-11-21T05:56:06;21.33;;;13.30;;
6207;SDS011;3137;51.550;7.060;2023-11-21T05:58:33;20.93;;;14.87;;
6207;SDS011;3137;51.550;7.060;2023-11-21T06:01:00;27.17;;;14.70;;
6207;SDS011;3137;51.550;7.060;2023-11-21T06:03:26;25.47;;;17.30;;
6207;SDS011;3137;51.550;7.060;2023-11-21T06:05:53;18.70;;;14.50;;
6207;SDS011;3137;51.550;7.060;2023-11-21T06:08:20;26.10;;;15.40;;
6207;SDS011;3137;51.550;7.060;2023-11-21T06:10:46;24.27;;;14.60;;
6207;SDS011;3137;51.550;7.060;2023-11-21T06:13:15;19.83;;;13.67;;
6207;SDS011;3137;51.550;7.060;2023-11-21T06:15:42;22.60;;;12.63;;
6207;SDS011;3137;51.550;7.060;2023-11-21T06:18:08;20.70;;;12.13;;
6207;SDS011;3137;51.550;7.060;2023-11-21T06:20:40;25.83;;;15.07;;
6207;SDS011;3137;51.550;7.060;2023-11-21T06:23:06;28.50;;;16.00;;
6207;SDS011;3137;51.550;7.060;2023-11-21T06:25:33;24.33;;;14.17;;
6207;SDS011;3137;51.550;7.060;2023-11-21T06:28:02;20.70;;;13.37;;
6207;SDS011;3137;51.550;7.060;2023-11-21T06:30:28;26.83;;;15.37;;
6207;SDS011;3137;51.550;7.060;2023-11-21T06:32:55;22.20;;;13.70;;
6207;SDS011;3137;51.550;7.060;2023-11-21T06:35:22;15.80;;;13.13;;
6207;SDS011;3137;51.550;7.060;2023-11-21T06:37:49;20.67;;;13.33;;
6207;SDS011;3137;51.550;7.060;2023-11-21T06:40:17;27.53;;;14.30;;
6207;SDS011;3137;51.550;7.060;2023-11-21T06:42:48;25.03;;;13.37;;
6207;SDS011;3137;51.550;7.060;2023-11-21T06:45:15;18.77;;;12.60;;
6207;SDS011;3137;51.550;7.060;2023-11-21T06:47:42;23.77;;;14.70;;
6207;SDS011;3137;51.550;7.060;2023-11-21T06:50:09;17.93;;;12.13;;
6207;SDS011;3137;51.550;7.060;2023-11-21T06:52:36;17.53;;;14.20;;
6207;SDS011;3137;51.550;7.060;2023-11-21T06:55:02;33.63;;;14.40;;
6207;SDS011;3137;51.550;7.060;2023-11-21T06:57:29;26.87;;;15.37;;
6207;SDS011;3137;51.550;7.060;2023-11-21T06:59:55;34.00;;;16.37;;
6207;SDS011;3137;51.550;7.060;2023-11-21T07:02:23;30.40;;;16.33;;
6207;SDS011;3137;51.550;7.060;2023-11-21T07:04:50;27.07;;;15.77;;
6207;SDS011;3137;51.550;7.060;2023-11-21T07:07:16;20.20;;;15.03;;
6207;SDS011;3137;51.550;7.060;2023-11-21T07:09:44;23.43;;;15.17;;
6207;SDS011;3137;51.550;7.060;2023-11-21T07:12:11;27.80;;;16.40;;
6207;SDS011;3137;51.550;7.060;2023-11-21T07:14:37;27.40;;;15.27;;
6207;SDS011;3137;51.550;7.060;2023-11-21T07:17:05;38.17;;;15.13;;
6207;SDS011;3137;51.550;7.060;2023-11-21T07:19:32;36.30;;;15.50;;
6207;SDS011;3137;51.550;7.060;2023-11-21T07:22:00;32.53;;;17.00;;
6207;SDS011;3137;51.550;7.060;2023-11-21T07:24:26;33.43;;;16.63;;
6207;SDS011;3137;51.550;7.060;2023-11-21T07:26:53;32.03;;;17.93;;
6207;SDS011;3137;51.550;7.060;2023-11-21T07:29:25;36.87;;;18.80;;
6207;SDS011;3137;51.550;7.060;2023-11-21T07:31:52;48.93;;;19.20;;
6207;SDS011;3137;51.550;7.060;2023-11-21T07:34:20;38.07;;;19.30;;
6207;SDS011;3137;51.550;7.060;2023-11-21T07:36:47;40.03;;;19.07;;
6207;SDS011;3137;51.550;7.060;2023-11-21T07:39:13;32.17;;;16.33;;
6207;SDS011;3137;51.550;7.060;2023-11-21T07:41:42;28.17;;;14.80;;
6207;SDS011;3137;51.550;7.060;2023-11-21T07:44:18;30.53;;;15.93;;
6207;SDS011;3137;51.550;7.060;2023-11-21T07:46:46;18.63;;;13.37;;
6207;SDS011;3137;51.550;7.060;2023-11-21T07:49:12;33.50;;;17.13;;
6207;SDS011;3137;51.550;7.060;2023-11-21T07:51:43;36.90;;;17.60;;
6207;SDS011;3137;51.550;7.060;2023-11-21T07:54:10;36.43;;;18.03;;
6207;SDS011;3137;51.550;7.060;2023-11-21T07:56:36;34.60;;;17.87;;
6207;SDS011;3137;51.550;7.060;2023-11-21T07:59:03;39.30;;;19.00;;
6207;SDS011;3137;51.550;7.060;2023-11-21T08:01:30;42.80;;;20.47;;
6207;SDS011;3137;51.550;7.060;2023-11-21T08:03:58;35.97;;;19.03;;
6207;SDS011;3137;51.550;7.060;2023-11-21T08:06:28;52.13;;;24.17;;
6207;SDS011;3137;51.550;7.060;2023-11-21T08:08:56;56.63;;;24.60;;
6207;SDS011;3137;51.550;7.060;2023-11-21T08:11:23;73.63;;;24.97;;
6207;SDS011;3137;51.550;7.060;2023-11-21T08:13:49;63.50;;;25.43;;
6207;SDS011;3137;51.550;7.060;2023-11-21T08:16:16;75.67;;;26.63;;
6207;SDS011;3137;51.550;7.060;2023-11-21T08:18:43;75.70;;;27.40;;
6207;SDS011;3137;51.550;7.060;2023-11-21T08:21:09;77.07;;;26.87;;
6207;SDS011;3137;51.550;7.060;2023-11-21T08:23:39;85.07;;;27.57;;
6207;SDS011;3137;51.550;7.060;2023-11-21T08:26:05;69.07;;;28.27;;
6207;SDS011;3137;51.550;7.060;2023-11-21T08:28:32;81.30;;;28.33;;
6207;SDS011;3137;51.550;7.060;2023-11-21T08:31:00;83.90;;;29.30;;
6207;SDS011;3137;51.550;7.060;2023-11-21T08:33:27;80.80;;;27.97;;
6207;SDS011;3137;51.550;7.060;2023-11-21T08:35:53;88.37;;;30.30;;
6207;SDS011;3137;51.550;7.060;2023-11-21T08:38:20;84.07;;;29.10;;
6207;SDS011;3137;51.550;7.060;2023-11-21T08:40:46;93.70;;;30.97;;
6207;SDS011;3137;51.550;7.060;2023-11-21T08:47:18;101.43;;;31.70;;
6207;SDS011;3137;51.550;7.060;2023-11-21T08:49:45;86.70;;;30.20;;
6207;SDS011;3137;51.550;7.060;2023-11-21T08:52:12;81.47;;;30.80;;
6207;SDS011;3137;51.550;7.060;2023-11-21T08:54:39;75.40;;;30.10;;
6207;SDS011;3137;51.550;7.060;2023-11-21T08:57:05;92.40;;;31.00;;
6207;SDS011;3137;51.550;7.060;2023-11-21T08:59:32;92.40;;;30.03;;
6207;SDS011;3137;51.550;7.060;2023-11-21T09:01:58;87.97;;;30.37;;
6207;SDS011;3137;51.550;7.060;2023-11-21T09:04:25;89.03;;;29.83;;
6207;SDS011;3137;51.550;7.060;2023-11-21T09:06:52;93.07;;;31.60;;
6207;SDS011;3137;51.550;7.060;2023-11-21T09:09:18;100.87;;;31.70;;
6207;SDS011;3137;51.550;7.060;2023-11-21T09:11:46;91.90;;;31.20;;
6207;SDS011;3137;51.550;7.060;2023-11-21T09:14:12;88.13;;;31.27;;
6207;SDS011;3137;51.550;7.060;2023-11-21T09:16:41;110.33;;;31.93;;
6207;SDS011;3137;51.550;7.060;2023-11-21T09:19:07;89.13;;;27.97;;
6207;SDS011;3137;51.550;7.060;2023-11-21T09:21:34;86.70;;;29.90;;
6207;SDS011;3137;51.550;7.060;2023-11-21T09:24:00;75.13;;;28.93;;
6207;SDS011;3137;51.550;7.060;2023-11-21T09:26:27;88.13;;;31.03;;
6207;SDS011;3137;51.550;7.060;2023-11-21T09:28:54;91.23;;;30.43;;
6207;SDS011;3137;51.550;7.060;2023-11-21T09:31:22;83.73;;;29.30;;
6207;SDS011;3137;51.550;7.060;2023-11-21T09:33:50;78.03;;;28.47;;
6207;SDS011;3137;51.550;7.060;2023-11-21T09:36:17;64.40;;;25.87;;
6207;SDS011;3137;51.550;7.060;2023-11-21T09:38:43;78.43;;;28.03;;
6207;SDS011;3137;51.550;7.060;2023-11-21T09:41:21;58.17;;;25.03;;
6207;SDS011;3137;51.550;7.060;2023-11-21T09:44:00;77.77;;;26.17;;
6207;SDS011;3137;51.550;7.060;2023-11-21T09:46:30;79.73;;;29.33;;
6207;SDS011;3137;51.550;7.060;2023-11-21T09:48:57;76.63;;;28.27;;
6207;SDS011;3137;51.550;7.060;2023-11-21T09:51:27;88.77;;;29.20;;
6207;SDS011;3137;51.550;7.060;2023-11-21T09:53:56;73.37;;;28.37;;
6207;SDS011;3137;51.550;7.060;2023-11-21T09:56:25;90.77;;;28.57;;
6207;SDS011;3137;51.550;7.060;2023-11-21T09:58:53;72.47;;;29.17;;
6207;SDS011;3137;51.550;7.060;2023-11-21T10:01:20;75.60;;;28.13;;
6207;SDS011;3137;51.550;7.060;2023-11-21T10:03:47;73.10;;;26.40;;
6207;SDS011;3137;51.550;7.060;2023-11-21T10:06:14;80.10;;;29.97;;
6207;SDS011;3137;51.550;7.060;2023-11-21T10:08:43;55.77;;;23.97;;
6207;SDS011;3137;51.550;7.060;2023-11-21T10:11:20;69.80;;;27.17;;
6207;SDS011;3137;51.550;7.060;2023-11-21T10:13:52;63.67;;;28.43;;
6207;SDS011;3137;51.550;7.060;2023-11-21T10:16:20;77.70;;;28.57;;
6207;SDS011;3137;51.550;7.060;2023-11-21T10:18:50;65.97;;;25.83;;
6207;SDS011;3137;51.550;7.060;2023-11-21T10:21:37;67.57;;;25.83;;
6207;SDS011;3137;51.550;7.060;2023-11-21T10:24:05;65.47;;;27.13;;
6207;SDS011;3137;51.550;7.060;2023-11-21T10:26:32;60.80;;;26.67;;
6207;SDS011;3137;51.550;7.060;2023-11-21T10:29:16;76.43;;;30.37;;
6207;SDS011;3137;51.550;7.060;2023-11-21T10:31:45;77.43;;;29.73;;
6207;SDS011;3137;51.550;7.060;2023-11-21T10:34:16;70.47;;;27.73;;
6207;SDS011;3137;51.550;7.060;2023-11-21T10:36:44;60.37;;;26.50;;
6207;SDS011;3137;51.550;7.060;2023-11-21T10:39:14;68.10;;;28.27;;
6207;SDS011;3137;51.550;7.060;2023-11-21T10:41:46;55.87;;;26.57;;
6207;SDS011;3137;51.550;7.060;2023-11-21T10:44:14;70.37;;;27.97;;
6207;SDS011;3137;51.550;7.060;2023-11-21T10:46:48;62.57;;;26.40;;
6207;SDS011;3137;51.550;7.060;2023-11-21T10:49:17;73.13;;;27.57;;
6207;SDS011;3137;51.550;7.060;2023-11-21T10:51:45;80.00;;;29.87;;
6207;SDS011;3137;51.550;7.060;2023-11-21T10:54:12;71.23;;;29.33;;
6207;SDS011;3137;51.550;7.060;2023-11-21T10:56:39;71.80;;;31.07;;
6207;SDS011;3137;51.550;7.060;2023-11-21T10:59:09;70.70;;;26.57;;
6207;SDS011;3137;51.550;7.060;2023-11-21T11:01:42;78.60;;;29.27;;
6207;SDS011;3137;51.550;7.060;2023-11-21T11:04:13;67.37;;;28.50;;
6207;SDS011;3137;51.550;7.060;2023-11-21T11:06:43;68.23;;;29.50;;
6207;SDS011;3137;51.550;7.060;2023-11-21T11:09:13;78.33;;;30.80;;
6207;SDS011;3137;51.550;7.060;2023-11-21T11:11:40;71.13;;;28.40;;
6207;SDS011;3137;51.550;7.060;2023-11-21T11:14:09;70.97;;;29.43;;
6207;SDS011;3137;51.550;7.060;2023-11-21T11:16:38;77.67;;;32.07;;
6207;SDS011;3137;51.550;7.060;2023-11-21T11:19:12;72.67;;;29.63;;
6207;SDS011;3137;51.550;7.060;2023-11-21T11:27:23;85.83;;;29.03;;
6207;SDS011;3137;51.550;7.060;2023-11-21T11:30:16;69.40;;;28.00;;
6207;SDS011;3137;51.550;7.060;2023-11-21T11:32:58;80.90;;;31.30;;
6207;SDS011;3137;51.550;7.060;2023-11-21T11:35:34;82.37;;;31.63;;
6207;SDS011;3137;51.550;7.060;2023-11-21T11:38:13;88.20;;;33.13;;
6207;SDS011;3137;51.550;7.060;2023-11-21T11:40:52;98.90;;;34.07;;
6207;SDS011;3137;51.550;7.060;2023-11-21T11:43:26;72.77;;;28.23;;
6207;SDS011;3137;51.550;7.060;2023-11-21T11:45:57;67.70;;;27.90;;
6207;SDS011;3137;51.550;7.060;2023-11-21T11:48:25;57.17;;;25.13;;
6207;SDS011;3137;51.550;7.060;2023-11-21T11:51:02;44.63;;;20.50;;
6207;SDS011;3137;51.550;7.060;2023-11-21T11:53:43;40.00;;;20.53;;
6207;SDS011;3137;51.550;7.060;2023-11-21T11:56:19;45.33;;;21.97;;
6207;SDS011;3137;51.550;7.060;2023-11-21T11:59:01;47.90;;;21.53;;
6207;SDS011;3137;51.550;7.060;2023-11-21T12:01:31;42.70;;;21.17;;
6207;SDS011;3137;51.550;7.060;2023-11-21T12:06:43;36.30;;;20.03;;
6207;SDS011;3137;51.550;7.060;2023-11-21T12:09:28;43.20;;;20.53;;
6207;SDS011;3137;51.550;7.060;2023-11-21T12:11:57;34.93;;;19.90;;
6207;SDS011;3137;51.550;7.060;2023-11-21T12:14:24;41.40;;;20.73;;
6207;SDS011;3137;51.550;7.060;2023-11-21T12:16:51;46.07;;;20.50;;
6207;SDS011;3137;51.550;7.060;2023-11-21T12:19:18;47.20;;;21.50;;
6207;SDS011;3137;51.550;7.060;2023-11-21T12:21:47;32.70;;;18.50;;
6207;SDS011;3137;51.550;7.060;2023-11-21T12:24:14;35.83;;;18.23;;
6207;SDS011;3137;51.550;7.060;2023-11-21T12:26:42;42.33;;;19.47;;
6207;SDS011;3137;51.550;7.060;2023-11-21T12:29:10;43.67;;;20.40;;
6207;SDS011;3137;51.550;7.060;2023-11-21T12:31:37;34.33;;;19.17;;
6207;SDS011;3137;51.550;7.060;2023-11-21T12:34:04;43.30;;;20.67;;
6207;SDS011;3137;51.550;7.060;2023-11-21T12:36:31;38.60;;;19.77;;
6207;SDS011;3137;51.550;7.060;2023-11-21T12:38:57;41.80;;;20.57;;
6207;SDS011;3137;51.550;7.060;2023-11-21T12:41:24;41.13;;;19.77;;
6207;SDS011;3137;51.550;7.060;2023-11-21T12:43:51;37.40;;;20.27;;
6207;SDS011;3137;51.550;7.060;2023-11-21T12:46:19;35.40;;;19.23;;
6207;SDS011;3137;51.550;7.060;2023-11-21T12:48:46;35.60;;;20.50;;
6207;SDS011;3137;51.550;7.060;2023-11-21T12:51:13;35.93;;;18.13;;
6207;SDS011;3137;51.550;7.060;2023-11-21T12:53:42;35.20;;;17.80;;
6207;SDS011;3137;51.550;7.060;2023-11-21T12:56:12;32.97;;;17.03;;
6207;SDS011;3137;51.550;7.060;2023-11-21T12:58:39;29.67;;;17.83;;
6207;SDS011;3137;51.550;7.060;2023-11-21T13:01:08;35.13;;;18.37;;
6207;SDS011;3137;51.550;7.060;2023-11-21T13:03:48;31.17;;;17.10;;
6207;SDS011;3137;51.550;7.060;2023-11-21T13:06:17;31.30;;;15.93;;
6207;SDS011;3137;51.550;7.060;2023-11-21T13:08:45;33.43;;;17.03;;
6207;SDS011;3137;51.550;7.060;2023-11-21T13:11:11;29.83;;;16.13;;
6207;SDS011;3137;51.550;7.060;2023-11-21T13:13:41;25.80;;;15.27;;
6207;SDS011;3137;51.550;7.060;2023-11-21T13:16:11;24.37;;;13.90;;
6207;SDS011;3137;51.550;7.060;2023-11-21T13:18:38;24.07;;;15.00;;
6207;SDS011;3137;51.550;7.060;2023-11-21T13:21:06;26.13;;;13.97;;
6207;SDS011;3137;51.550;7.060;2023-11-21T13:23:40;22.27;;;14.43;;
6207;SDS011;3137;51.550;7.060;2023-11-21T13:26:08;24.13;;;13.53;;
6207;SDS011;3137;51.550;7.060;2023-11-21T13:28:35;28.97;;;13.80;;
6207;SDS011;3137;51.550;7.060;2023-11-21T13:31:04;27.70;;;13.97;;
6207;SDS011;3137;51.550;7.060;2023-11-21T13:33:48;21.67;;;12.33;;
6207;SDS011;3137;51.550;7.060;2023-11-21T13:36:23;26.40;;;13.00;;
6207;SDS011;3137;51.550;7.060;2023-11-21T13:38:51;22.70;;;12.13;;
6207;SDS011;3137;51.550;7.060;2023-11-21T13:41:20;17.50;;;11.87;;
6207;SDS011;3137;51.550;7.060;2023-11-21T13:43:54;20.50;;;13.37;;
6207;SDS011;3137;51.550;7.060;2023-11-21T13:46:29;14.50;;;10.80;;
6207;SDS011;3137;51.550;7.060;2023-11-21T13:49:01;25.73;;;12.67;;
6207;SDS011;3137;51.550;7.060;2023-11-21T13:51:28;18.20;;;11.23;;
6207;SDS011;3137;51.550;7.060;2023-11-21T13:54:05;21.40;;;13.80;;
6207;SDS011;3137;51.550;7.060;2023-11-21T13:56:36;19.97;;;12.20;;
6207;SDS011;3137;51.550;7.060;2023-11-21T13:59:03;17.17;;;11.50;;
6207;SDS011;3137;51.550;7.060;2023-11-21T14:01:44;24.10;;;12.57;;
6207;SDS011;3137;51.550;7.060;2023-11-21T14:04:21;22.43;;;12.77;;
6207;SDS011;3137;51.550;7.060;2023-11-21T14:06:57;19.37;;;11.70;;
6207;SDS011;3137;51.550;7.060;2023-11-21T14:09:26;18.47;;;11.97;;
6207;SDS011;3137;51.550;7.060;2023-11-21T14:12:00;17.73;;;11.87;;
6207;SDS011;3137;51.550;7.060;2023-11-21T14:14:29;17.57;;;11.30;;
6207;SDS011;3137;51.550;7.060;2023-11-21T14:16:55;16.10;;;11.30;;
6207;SDS011;3137;51.550;7.060;2023-11-21T14:19:25;11.17;;;10.07;;
6207;SDS011;3137;51.550;7.060;2023-11-21T14:21:57;13.63;;;9.83;;
6207;SDS011;3137;51.550;7.060;2023-11-21T14:24:24;11.20;;;10.03;;
6207;SDS011;3137;51.550;7.060;2023-11-21T14:26:51;11.23;;;9.87;;
6207;SDS011;3137;51.550;7.060;2023-11-21T14:29:19;14.77;;;9.83;;
6207;SDS011;3137;51.550;7.060;2023-11-21T14:31:49;15.90;;;9.53;;
6207;SDS011;3137;51.550;7.060;2023-11-21T14:34:18;11.27;;;8.93;;
6207;SDS011;3137;51.550;7.060;2023-11-21T14:36:48;10.70;;;9.03;;
6207;SDS011;3137;51.550;7.060;2023-11-21T14:39:15;12.30;;;7.97;;
6207;SDS011;3137;51.550;7.060;2023-11-21T14:41:53;9.40;;;8.47;;
6207;SDS011;3137;51.550;7.060;2023-11-21T14:44:22;8.80;;;8.00;;
6207;SDS011;3137;51.550;7.060;2023-11-21T14:47:04;10.23;;;8.17;;
6207;SDS011;3137;51.550;7.060;2023-11-21T14:49:35;8.37;;;7.43;;
6207;SDS011;3137;51.550;7.060;2023-11-21T14:52:19;8.43;;;7.43;;
6207;SDS011;3137;51.550;7.060;2023-11-21T14:55:01;6.77;;;6.37;;
6207;SDS011;3137;51.550;7.060;2023-11-21T14:57:47;7.53;;;7.00;;
6207;SDS011;3137;51.550;7.060;2023-11-21T15:00:17;13.13;;;5.83;;
6207;SDS011;3137;51.550;7.060;2023-11-21T15:03:01;6.60;;;6.17;;
6207;SDS011;3137;51.550;7.060;2023-11-21T15:05:28;6.30;;;6.00;;
6207;SDS011;3137;51.550;7.060;2023-11-21T15:07:55;5.70;;;5.50;;